MAS7042 WMKK-YMML
Flight info
| Callsign | MAS7042 |
|---|---|
| Flight time | 7h 28m |
| Altitude | 39000 |
| Route | MITOS M630 BOBAG P501 ANITO B470 PKP L895 TATAN/N0482F410 L895 SAPDA A585 AD V255 BENDO Y12 ARBEY |
| Aircraft | A359/H-SDE2E3GHIJ3J4J5LM1ORWXY/LB1D1 |
Departure
| Time | 2026-04-30 14:32 |
|---|---|
| Airport | Kuala Lumpur International Airport (WMKK) |
Arrival
| Time | 2026-04-30 22:00 |
|---|---|
| Airport | Melbourne Airport (YMML) |
| Time | Latitude | Longitude | Altitude | Speed | Heading |
|---|---|---|---|---|---|
| 2026-04-30 13:51 | 2.74857 | 101.71576 | 79 ft | 0 kts | 326° |
| 2026-04-30 14:21 | 2.74846 | 101.71583 | 80 ft | 4 kts | 326° |
| 2026-04-30 14:21 | 2.74807 | 101.71610 | 85 ft | 3 kts | 326° |
| 2026-04-30 14:22 | 2.74793 | 101.71619 | 85 ft | 4 kts | 284° |
| 2026-04-30 14:22 | 2.74808 | 101.71638 | 85 ft | 4 kts | 223° |
| 2026-04-30 14:22 | 2.74825 | 101.71656 | 85 ft | 2 kts | 236° |
| 2026-04-30 14:23 | 2.74825 | 101.71657 | 85 ft | 0 kts | 236° |
| 2026-04-30 14:27 | 2.74824 | 101.71654 | 83 ft | 0 kts | 236° |
| 2026-04-30 14:27 | 2.74815 | 101.71642 | 83 ft | 6 kts | 236° |
| 2026-04-30 14:27 | 2.74795 | 101.71613 | 85 ft | 9 kts | 236° |
| 2026-04-30 14:28 | 2.74665 | 101.71620 | 84 ft | 13 kts | 145° |
| 2026-04-30 14:28 | 2.74577 | 101.71680 | 83 ft | 17 kts | 146° |
| 2026-04-30 14:28 | 2.74548 | 101.71765 | 82 ft | 15 kts | 62° |
| 2026-04-30 14:28 | 2.74609 | 101.71854 | 84 ft | 16 kts | 56° |
| 2026-04-30 14:29 | 2.74723 | 101.72025 | 90 ft | 12 kts | 57° |
| 2026-04-30 14:29 | 2.74768 | 101.72092 | 89 ft | 0 kts | 55° |
| 2026-04-30 14:30 | 2.74777 | 101.72105 | 87 ft | 5 kts | 56° |
| 2026-04-30 14:31 | 2.74868 | 101.72184 | 87 ft | 10 kts | 348° |
| 2026-04-30 14:31 | 2.75134 | 101.72008 | 87 ft | 72 kts | 326° |
| 2026-04-30 14:31 | 2.75723 | 101.71613 | 85 ft | 133 kts | 327° |
| 2026-04-30 14:32 | 2.77628 | 101.70306 | 914 ft | 166 kts | 326° |
| 2026-04-30 14:32 | 2.78624 | 101.69634 | 1365 ft | 183 kts | 327° |
| 2026-04-30 14:32 | 2.79790 | 101.68988 | 1706 ft | 201 kts | 338° |
| 2026-04-30 14:33 | 2.81157 | 101.68461 | 2052 ft | 218 kts | 341° |
| 2026-04-30 14:33 | 2.84149 | 101.67795 | 3244 ft | 222 kts | 359° |
| 2026-04-30 14:33 | 2.85723 | 101.67742 | 3716 ft | 235 kts | 360° |
| 2026-04-30 14:34 | 2.87446 | 101.67701 | 4013 ft | 258 kts | 0° |
| 2026-04-30 14:34 | 2.89233 | 101.67794 | 4621 ft | 263 kts | 12° |
| 2026-04-30 14:34 | 2.90936 | 101.68438 | 5359 ft | 262 kts | 34° |
| 2026-04-30 14:34 | 2.92201 | 101.69743 | 6071 ft | 264 kts | 61° |
| 2026-04-30 14:35 | 2.92160 | 101.73298 | 7443 ft | 275 kts | 120° |
| 2026-04-30 14:35 | 2.90947 | 101.74791 | 8167 ft | 278 kts | 128° |
| 2026-04-30 14:35 | 2.90090 | 101.76511 | 8917 ft | 277 kts | 106° |
| 2026-04-30 14:36 | 2.89487 | 101.78322 | 9692 ft | 280 kts | 107° |
| 2026-04-30 14:36 | 2.88638 | 101.80124 | 10338 ft | 289 kts | 120° |
| 2026-04-30 14:36 | 2.87280 | 101.81656 | 10637 ft | 312 kts | 141° |
| 2026-04-30 14:36 | 2.85267 | 101.82646 | 10921 ft | 333 kts | 159° |
| 2026-04-30 14:37 | 2.82997 | 101.83366 | 11227 ft | 349 kts | 160° |
| 2026-04-30 14:37 | 2.80643 | 101.84085 | 11715 ft | 356 kts | 161° |
| 2026-04-30 14:37 | 2.78246 | 101.84825 | 12268 ft | 361 kts | 160° |
| 2026-04-30 14:37 | 2.75829 | 101.85580 | 12876 ft | 365 kts | 160° |
| 2026-04-30 14:38 | 2.73418 | 101.86337 | 13462 ft | 368 kts | 160° |
| 2026-04-30 14:38 | 2.70959 | 101.87111 | 14043 ft | 371 kts | 160° |
| 2026-04-30 14:38 | 2.68478 | 101.87893 | 14549 ft | 375 kts | 160° |
| 2026-04-30 14:38 | 2.65978 | 101.88680 | 15060 ft | 379 kts | 160° |
| 2026-04-30 14:39 | 2.63450 | 101.89477 | 15590 ft | 381 kts | 160° |
| 2026-04-30 14:39 | 2.60907 | 101.90279 | 16117 ft | 384 kts | 160° |
| 2026-04-30 14:39 | 2.58349 | 101.91086 | 16637 ft | 387 kts | 160° |
| 2026-04-30 14:40 | 2.53197 | 101.92712 | 17649 ft | 392 kts | 160° |
| 2026-04-30 14:40 | 2.50596 | 101.93533 | 18142 ft | 396 kts | 160° |
| 2026-04-30 14:40 | 2.47944 | 101.94369 | 18574 ft | 399 kts | 160° |
| 2026-04-30 14:40 | 2.45286 | 101.95207 | 19011 ft | 401 kts | 160° |
| 2026-04-30 14:41 | 2.42614 | 101.96050 | 19446 ft | 403 kts | 160° |
| 2026-04-30 14:41 | 2.39923 | 101.96899 | 19895 ft | 406 kts | 160° |
| 2026-04-30 14:41 | 2.37244 | 101.97744 | 20329 ft | 409 kts | 160° |
| 2026-04-30 14:41 | 2.34504 | 101.98609 | 20779 ft | 411 kts | 160° |
| 2026-04-30 14:42 | 2.31763 | 101.99473 | 21233 ft | 414 kts | 160° |
| 2026-04-30 14:42 | 2.29036 | 102.00333 | 21670 ft | 417 kts | 160° |
| 2026-04-30 14:42 | 2.26252 | 102.01212 | 22120 ft | 420 kts | 160° |
| 2026-04-30 14:42 | 2.23453 | 102.02094 | 22547 ft | 422 kts | 160° |
| 2026-04-30 14:43 | 2.20638 | 102.02982 | 22987 ft | 425 kts | 160° |
| 2026-04-30 14:43 | 2.17792 | 102.03880 | 23418 ft | 428 kts | 160° |
| 2026-04-30 14:43 | 2.14944 | 102.04778 | 23766 ft | 431 kts | 160° |
| 2026-04-30 14:43 | 2.12105 | 102.05673 | 24107 ft | 433 kts | 160° |
| 2026-04-30 14:44 | 2.09205 | 102.06587 | 24465 ft | 436 kts | 160° |
| 2026-04-30 14:44 | 2.06297 | 102.07504 | 24839 ft | 439 kts | 160° |
| 2026-04-30 14:44 | 2.03407 | 102.08421 | 25219 ft | 441 kts | 160° |
| 2026-04-30 14:44 | 2.00554 | 102.09561 | 25607 ft | 442 kts | 152° |
| 2026-04-30 14:45 | 1.97932 | 102.11184 | 26006 ft | 443 kts | 141° |
| 2026-04-30 14:45 | 1.95663 | 102.13256 | 26418 ft | 443 kts | 131° |
| 2026-04-30 14:45 | 1.93688 | 102.15632 | 26820 ft | 446 kts | 126° |
| 2026-04-30 14:45 | 1.91898 | 102.18175 | 27237 ft | 448 kts | 122° |
| 2026-04-30 14:46 | 1.90196 | 102.20796 | 27648 ft | 451 kts | 121° |
| 2026-04-30 14:46 | 1.88507 | 102.23461 | 28061 ft | 454 kts | 121° |
| 2026-04-30 14:46 | 1.86805 | 102.26130 | 28455 ft | 457 kts | 121° |
| 2026-04-30 14:46 | 1.85071 | 102.28807 | 28835 ft | 460 kts | 122° |
| 2026-04-30 14:47 | 1.83310 | 102.31486 | 29205 ft | 463 kts | 122° |
| 2026-04-30 14:47 | 1.81519 | 102.34181 | 29599 ft | 466 kts | 122° |
| 2026-04-30 14:47 | 1.79731 | 102.36855 | 29966 ft | 469 kts | 123° |
| 2026-04-30 14:47 | 1.77907 | 102.39576 | 30284 ft | 472 kts | 123° |
| 2026-04-30 14:48 | 1.76070 | 102.42315 | 30608 ft | 474 kts | 123° |
| 2026-04-30 14:48 | 1.74226 | 102.45066 | 30934 ft | 476 kts | 123° |
| 2026-04-30 14:48 | 1.72375 | 102.47828 | 31263 ft | 478 kts | 123° |
| 2026-04-30 14:48 | 1.70540 | 102.50569 | 31578 ft | 480 kts | 122° |
| 2026-04-30 14:49 | 1.68674 | 102.53356 | 31888 ft | 482 kts | 122° |
| 2026-04-30 14:49 | 1.66801 | 102.56155 | 32185 ft | 484 kts | 122° |
| 2026-04-30 14:49 | 1.64919 | 102.58966 | 32477 ft | 486 kts | 122° |
| 2026-04-30 14:49 | 1.63037 | 102.61779 | 32774 ft | 488 kts | 123° |
| 2026-04-30 14:50 | 1.59245 | 102.67444 | 33303 ft | 491 kts | 123° |
| 2026-04-30 14:50 | 1.57367 | 102.70250 | 33561 ft | 493 kts | 123° |
| 2026-04-30 14:51 | 1.53538 | 102.75970 | 34144 ft | 494 kts | 123° |
| 2026-04-30 14:51 | 1.51629 | 102.78820 | 34460 ft | 493 kts | 123° |
| 2026-04-30 14:51 | 1.47817 | 102.84514 | 35055 ft | 491 kts | 123° |
| 2026-04-30 14:52 | 1.45920 | 102.87347 | 35367 ft | 490 kts | 123° |
| 2026-04-30 14:52 | 1.42128 | 102.93010 | 35955 ft | 489 kts | 123° |
| 2026-04-30 14:52 | 1.40262 | 102.95797 | 36242 ft | 488 kts | 123° |
| 2026-04-30 14:53 | 1.36492 | 103.01433 | 36799 ft | 487 kts | 123° |
| 2026-04-30 14:53 | 1.34607 | 103.04256 | 36890 ft | 488 kts | 123° |
| 2026-04-30 14:54 | 1.27102 | 103.15492 | 36892 ft | 486 kts | 123° |
| 2026-04-30 14:55 | 1.21464 | 103.23932 | 36905 ft | 485 kts | 123° |
| 2026-04-30 14:56 | 1.13986 | 103.35124 | 36897 ft | 484 kts | 123° |
| 2026-04-30 14:57 | 1.08371 | 103.43528 | 36912 ft | 484 kts | 123° |
| 2026-04-30 14:58 | 1.00101 | 103.54066 | 36902 ft | 484 kts | 133° |
| 2026-04-30 14:58 | 0.93079 | 103.61313 | 36921 ft | 483 kts | 134° |
| 2026-04-30 15:00 | 0.81423 | 103.73318 | 36911 ft | 482 kts | 133° |
| 2026-04-30 15:01 | 0.72117 | 103.82934 | 36935 ft | 481 kts | 133° |
| 2026-04-30 15:01 | 0.65126 | 103.90157 | 36927 ft | 481 kts | 133° |
| 2026-04-30 15:02 | 0.60461 | 103.94975 | 36940 ft | 481 kts | 133° |
| 2026-04-30 15:03 | 0.48822 | 104.07001 | 36944 ft | 481 kts | 133° |
| 2026-04-30 15:04 | 0.37195 | 104.18996 | 36932 ft | 481 kts | 133° |
| 2026-04-30 15:06 | 0.25563 | 104.31011 | 36932 ft | 481 kts | 133° |
| 2026-04-30 15:07 | 0.16286 | 104.40585 | 36938 ft | 480 kts | 133° |
| 2026-04-30 15:08 | 0.07026 | 104.50147 | 36939 ft | 479 kts | 133° |
| 2026-04-30 15:09 | -0.04528 | 104.62076 | 36940 ft | 478 kts | 133° |
| 2026-04-30 15:10 | -0.13775 | 104.71624 | 36938 ft | 477 kts | 133° |
| 2026-04-30 15:11 | -0.27650 | 104.85852 | 36940 ft | 477 kts | 137° |
| 2026-04-30 15:12 | -0.35829 | 104.91795 | 36940 ft | 490 kts | 144° |
| 2026-04-30 15:13 | -0.40527 | 104.94953 | 36934 ft | 490 kts | 144° |
| 2026-04-30 15:14 | -0.60272 | 105.08268 | 36937 ft | 488 kts | 144° |
| 2026-04-30 15:17 | -0.85552 | 105.25376 | 36938 ft | 487 kts | 144° |
| 2026-04-30 15:19 | -1.07959 | 105.40541 | 36931 ft | 487 kts | 144° |
| 2026-04-30 17:39 | -17.35653 | 115.92853 | 36992 ft | 509 kts | 145° |
| 2026-04-30 17:42 | -17.62875 | 116.16611 | 36995 ft | 510 kts | 145° |
| 2026-04-30 17:43 | -17.76476 | 116.28519 | 36996 ft | 510 kts | 145° |
| 2026-04-30 17:44 | -17.92784 | 116.42828 | 36993 ft | 510 kts | 146° |
| 2026-04-30 17:47 | -18.17243 | 116.64356 | 36991 ft | 510 kts | 146° |
| 2026-04-30 17:48 | -18.36281 | 116.81153 | 36989 ft | 510 kts | 146° |
| 2026-04-30 17:50 | -18.57984 | 117.00366 | 36992 ft | 510 kts | 146° |
| 2026-04-30 17:52 | -18.74246 | 117.14806 | 36990 ft | 510 kts | 146° |
| 2026-04-30 17:54 | -18.98673 | 117.36568 | 36989 ft | 510 kts | 146° |
| 2026-04-30 17:56 | -19.20363 | 117.55963 | 36982 ft | 511 kts | 146° |
| 2026-04-30 17:58 | -19.36620 | 117.70546 | 36978 ft | 511 kts | 146° |
| 2026-04-30 18:00 | -19.58300 | 117.90055 | 36974 ft | 511 kts | 146° |
| 2026-04-30 18:01 | -19.71834 | 118.02270 | 36976 ft | 511 kts | 146° |
| 2026-04-30 18:02 | -19.88066 | 118.16957 | 36971 ft | 511 kts | 146° |
| 2026-04-30 18:04 | -20.04299 | 118.31685 | 36975 ft | 512 kts | 146° |
| 2026-04-30 18:06 | -20.25938 | 118.51384 | 36969 ft | 513 kts | 146° |
| 2026-04-30 18:08 | -20.44414 | 118.69437 | 36968 ft | 519 kts | 141° |
| 2026-04-30 18:10 | -20.64474 | 118.91611 | 36983 ft | 520 kts | 141° |
| 2026-04-30 18:11 | -20.82073 | 119.11096 | 36984 ft | 521 kts | 141° |
| 2026-04-30 18:13 | -20.94646 | 119.25061 | 36982 ft | 522 kts | 141° |
| 2026-04-30 18:14 | -21.07212 | 119.39054 | 36990 ft | 522 kts | 141° |
| 2026-04-30 18:15 | -21.22313 | 119.55919 | 36991 ft | 523 kts | 141° |
| 2026-04-30 18:16 | -21.32382 | 119.67195 | 36991 ft | 524 kts | 141° |
| 2026-04-30 18:17 | -21.37423 | 119.72849 | 36989 ft | 524 kts | 141° |
| 2026-04-30 18:18 | -21.45005 | 119.81363 | 36988 ft | 524 kts | 141° |
| 2026-04-30 18:18 | -21.50032 | 119.87015 | 36992 ft | 525 kts | 141° |
| 2026-04-30 18:19 | -21.55077 | 119.92694 | 36993 ft | 525 kts | 141° |
| 2026-04-30 18:19 | -21.60101 | 119.98355 | 36982 ft | 525 kts | 141° |
| 2026-04-30 18:20 | -21.65151 | 120.04053 | 36994 ft | 526 kts | 141° |
| 2026-04-30 18:20 | -21.70176 | 120.09727 | 36992 ft | 526 kts | 141° |
| 2026-04-30 18:21 | -21.75239 | 120.15451 | 36990 ft | 526 kts | 141° |
| 2026-04-30 18:21 | -21.80268 | 120.21143 | 36993 ft | 527 kts | 141° |
| 2026-04-30 18:22 | -21.85333 | 120.26882 | 36996 ft | 527 kts | 141° |
| 2026-04-30 18:22 | -21.92882 | 120.35450 | 36993 ft | 527 kts | 141° |
| 2026-04-30 18:23 | -21.97946 | 120.41203 | 36994 ft | 528 kts | 141° |
| 2026-04-30 18:23 | -22.02969 | 120.46914 | 36990 ft | 528 kts | 141° |
| 2026-04-30 18:24 | -22.10536 | 120.55533 | 36993 ft | 528 kts | 141° |
| 2026-04-30 18:25 | -22.14747 | 120.60335 | 36989 ft | 529 kts | 141° |
| 2026-04-30 18:25 | -22.23159 | 120.69944 | 36986 ft | 529 kts | 141° |
| 2026-04-30 18:26 | -22.29899 | 120.77654 | 36988 ft | 529 kts | 141° |
| 2026-04-30 18:27 | -22.37491 | 120.86353 | 36986 ft | 530 kts | 141° |
| 2026-04-30 18:28 | -22.45060 | 120.95041 | 36983 ft | 530 kts | 141° |
| 2026-04-30 18:28 | -22.52630 | 121.03744 | 36981 ft | 531 kts | 141° |
| 2026-04-30 18:29 | -22.62775 | 121.15434 | 36974 ft | 531 kts | 141° |
| 2026-04-30 18:30 | -22.72886 | 121.27109 | 36968 ft | 532 kts | 141° |
| 2026-04-30 18:31 | -22.80459 | 121.35871 | 36992 ft | 532 kts | 141° |
| 2026-04-30 18:32 | -22.88035 | 121.44653 | 36977 ft | 532 kts | 141° |
| 2026-04-30 18:33 | -22.95608 | 121.53449 | 36978 ft | 533 kts | 141° |
| 2026-04-30 18:33 | -23.03196 | 121.62285 | 36979 ft | 533 kts | 141° |
| 2026-04-30 18:34 | -23.10767 | 121.71116 | 36978 ft | 534 kts | 141° |
| 2026-04-30 18:35 | -23.15841 | 121.77045 | 36974 ft | 534 kts | 141° |
| 2026-04-30 18:35 | -23.20876 | 121.82935 | 36969 ft | 534 kts | 141° |
| 2026-04-30 18:36 | -23.28453 | 121.91812 | 36964 ft | 535 kts | 141° |
| 2026-04-30 18:37 | -23.36058 | 122.00735 | 36969 ft | 535 kts | 141° |
| 2026-04-30 18:37 | -23.41123 | 122.06690 | 36969 ft | 536 kts | 141° |
| 2026-04-30 18:38 | -23.46165 | 122.12623 | 36974 ft | 536 kts | 141° |
| 2026-04-30 18:38 | -23.51231 | 122.18592 | 36969 ft | 536 kts | 141° |
| 2026-04-30 18:39 | -23.56302 | 122.24573 | 36968 ft | 536 kts | 141° |
| 2026-04-30 18:39 | -23.61338 | 122.30522 | 36965 ft | 536 kts | 141° |
| 2026-04-30 18:40 | -23.66413 | 122.36524 | 36966 ft | 537 kts | 141° |
| 2026-04-30 18:40 | -23.71454 | 122.42491 | 36968 ft | 537 kts | 141° |
| 2026-04-30 18:41 | -23.76531 | 122.48510 | 36971 ft | 537 kts | 141° |
| 2026-04-30 18:41 | -23.81568 | 122.54488 | 36974 ft | 538 kts | 141° |
| 2026-04-30 18:42 | -23.86643 | 122.60519 | 36971 ft | 538 kts | 141° |
| 2026-04-30 18:42 | -23.94209 | 122.69526 | 36971 ft | 538 kts | 141° |
| 2026-04-30 18:45 | -24.22064 | 123.02825 | 36962 ft | 540 kts | 140° |
| 2026-04-30 18:46 | -24.27104 | 123.08874 | 36967 ft | 540 kts | 140° |
| 2026-04-30 18:46 | -24.32177 | 123.14973 | 36969 ft | 541 kts | 140° |
| 2026-04-30 18:47 | -24.37257 | 123.21086 | 36958 ft | 541 kts | 140° |
| 2026-04-30 18:47 | -24.42299 | 123.27159 | 36965 ft | 541 kts | 140° |
| 2026-04-30 18:48 | -24.47381 | 123.33291 | 36966 ft | 542 kts | 140° |
| 2026-04-30 18:48 | -24.52460 | 123.39431 | 36972 ft | 542 kts | 140° |
| 2026-04-30 18:49 | -24.57544 | 123.45583 | 36966 ft | 543 kts | 140° |
| 2026-04-30 18:49 | -24.62587 | 123.51693 | 36962 ft | 543 kts | 140° |
| 2026-04-30 18:50 | -24.67679 | 123.57870 | 36970 ft | 544 kts | 140° |
| 2026-04-30 18:50 | -24.72731 | 123.64007 | 36966 ft | 544 kts | 140° |
| 2026-04-30 18:51 | -24.77820 | 123.70197 | 36962 ft | 545 kts | 140° |
| 2026-04-30 18:51 | -24.82910 | 123.76397 | 36967 ft | 545 kts | 140° |
| 2026-04-30 18:52 | -24.87974 | 123.82572 | 36965 ft | 546 kts | 140° |
| 2026-04-30 18:52 | -24.93065 | 123.88789 | 36962 ft | 546 kts | 140° |
| 2026-04-30 18:53 | -24.98160 | 123.95018 | 36965 ft | 547 kts | 140° |
| 2026-04-30 18:53 | -25.03265 | 124.01269 | 36964 ft | 548 kts | 140° |
| 2026-04-30 18:54 | -25.08343 | 124.07496 | 36969 ft | 548 kts | 140° |
| 2026-04-30 18:54 | -25.13453 | 124.13770 | 36966 ft | 549 kts | 140° |
| 2026-04-30 18:55 | -25.18542 | 124.20026 | 36968 ft | 549 kts | 140° |
| 2026-04-30 18:55 | -25.26220 | 124.29481 | 36967 ft | 551 kts | 140° |
| 2026-04-30 18:56 | -25.33864 | 124.38913 | 36962 ft | 551 kts | 140° |
| 2026-04-30 18:57 | -25.41544 | 124.48410 | 36966 ft | 552 kts | 140° |
| 2026-04-30 18:57 | -25.46635 | 124.54716 | 36965 ft | 552 kts | 140° |
| 2026-04-30 18:58 | -25.54322 | 124.64255 | 36965 ft | 553 kts | 140° |
| 2026-04-30 18:59 | -25.61980 | 124.73775 | 36962 ft | 553 kts | 140° |
| 2026-04-30 19:00 | -25.72237 | 124.86560 | 36963 ft | 554 kts | 140° |
| 2026-04-30 19:01 | -25.82448 | 124.99324 | 36964 ft | 555 kts | 140° |
| 2026-04-30 19:02 | -25.90153 | 125.08978 | 36963 ft | 555 kts | 140° |
| 2026-04-30 19:03 | -26.00373 | 125.21817 | 36965 ft | 555 kts | 140° |
| 2026-04-30 19:04 | -26.10585 | 125.34682 | 36964 ft | 555 kts | 140° |
| 2026-04-30 19:05 | -26.20820 | 125.47612 | 36970 ft | 555 kts | 139° |
| 2026-04-30 19:06 | -26.31009 | 125.60522 | 36967 ft | 555 kts | 139° |
| 2026-04-30 19:06 | -26.38630 | 125.70200 | 36960 ft | 555 kts | 139° |
| 2026-04-30 19:07 | -26.46284 | 125.79943 | 36965 ft | 555 kts | 139° |
| 2026-04-30 19:08 | -26.56454 | 125.92923 | 36977 ft | 556 kts | 139° |
| 2026-04-30 19:09 | -26.64097 | 126.02702 | 36966 ft | 556 kts | 139° |
| 2026-04-30 19:09 | -26.69156 | 126.09187 | 36962 ft | 556 kts | 139° |
| 2026-04-30 19:10 | -26.79314 | 126.22239 | 36964 ft | 556 kts | 138° |
| 2026-04-30 19:11 | -26.86950 | 126.32074 | 36963 ft | 557 kts | 138° |
| 2026-04-30 19:12 | -26.92014 | 126.38609 | 36967 ft | 557 kts | 138° |
| 2026-04-30 19:12 | -26.97070 | 126.45143 | 36966 ft | 557 kts | 138° |
| 2026-04-30 19:13 | -27.07206 | 126.58273 | 36962 ft | 557 kts | 138° |
| 2026-04-30 19:14 | -27.12289 | 126.64872 | 36962 ft | 557 kts | 138° |
| 2026-04-30 19:14 | -27.17332 | 126.71429 | 36963 ft | 557 kts | 138° |
| 2026-04-30 19:15 | -27.21547 | 126.76917 | 36962 ft | 557 kts | 138° |
| 2026-04-30 19:15 | -27.29144 | 126.86826 | 36961 ft | 557 kts | 137° |
| 2026-04-30 19:16 | -27.34179 | 126.93409 | 36955 ft | 557 kts | 137° |
| 2026-04-30 19:17 | -27.41748 | 127.03332 | 36956 ft | 556 kts | 137° |
| 2026-04-30 19:17 | -27.49283 | 127.13233 | 36956 ft | 556 kts | 137° |
| 2026-04-30 19:18 | -27.56811 | 127.23149 | 36947 ft | 556 kts | 137° |
| 2026-04-30 19:19 | -27.61840 | 127.29785 | 36948 ft | 555 kts | 137° |
| 2026-04-30 19:19 | -27.69346 | 127.39708 | 36950 ft | 555 kts | 137° |
| 2026-04-30 19:20 | -27.74370 | 127.46364 | 36953 ft | 555 kts | 137° |
| 2026-04-30 19:21 | -27.81842 | 127.56281 | 36956 ft | 554 kts | 136° |
| 2026-04-30 19:22 | -27.91803 | 127.69537 | 36951 ft | 553 kts | 136° |
| 2026-04-30 19:23 | -28.06703 | 127.89443 | 36949 ft | 552 kts | 136° |
| 2026-04-30 19:24 | -28.14150 | 127.99428 | 36946 ft | 551 kts | 136° |
| 2026-04-30 19:25 | -28.26490 | 128.16027 | 36944 ft | 550 kts | 135° |
| 2026-04-30 19:26 | -28.36329 | 128.29306 | 36942 ft | 549 kts | 135° |
| 2026-04-30 19:27 | -28.43661 | 128.39231 | 36939 ft | 549 kts | 135° |
| 2026-04-30 19:28 | -28.51017 | 128.49211 | 36938 ft | 548 kts | 135° |
| 2026-04-30 19:29 | -28.60786 | 128.62500 | 36937 ft | 547 kts | 135° |
| 2026-04-30 19:30 | -28.70523 | 128.75790 | 36939 ft | 546 kts | 134° |
| 2026-04-30 19:31 | -28.80246 | 128.89102 | 36931 ft | 545 kts | 134° |
| 2026-04-30 19:31 | -28.87507 | 128.99073 | 36937 ft | 545 kts | 134° |
| 2026-04-30 19:32 | -28.92360 | 129.05744 | 36935 ft | 545 kts | 134° |
| 2026-04-30 19:32 | -28.97205 | 129.12408 | 36934 ft | 545 kts | 134° |
| 2026-04-30 19:33 | -29.02014 | 129.19033 | 36932 ft | 544 kts | 134° |
| 2026-04-30 19:33 | -29.06854 | 129.25712 | 36934 ft | 544 kts | 134° |
| 2026-04-30 19:34 | -29.11683 | 129.32388 | 36931 ft | 544 kts | 133° |
| 2026-04-30 19:35 | -29.18911 | 129.42400 | 36931 ft | 543 kts | 133° |
| 2026-04-30 19:35 | -29.23687 | 129.49030 | 36928 ft | 543 kts | 133° |
| 2026-04-30 19:36 | -29.28496 | 129.55718 | 36930 ft | 543 kts | 133° |
| 2026-04-30 19:36 | -29.35707 | 129.65763 | 36923 ft | 543 kts | 133° |
| 2026-04-30 19:37 | -29.40480 | 129.72426 | 36927 ft | 542 kts | 133° |
| 2026-04-30 19:37 | -29.45285 | 129.79145 | 36925 ft | 542 kts | 133° |
| 2026-04-30 19:38 | -29.50034 | 129.85798 | 36920 ft | 542 kts | 133° |
| 2026-04-30 19:38 | -29.54820 | 129.92512 | 36922 ft | 542 kts | 133° |
| 2026-04-30 19:39 | -29.59599 | 129.99227 | 36929 ft | 541 kts | 132° |
| 2026-04-30 19:39 | -29.64350 | 130.05914 | 36916 ft | 541 kts | 132° |
| 2026-04-30 19:40 | -29.69113 | 130.12630 | 36918 ft | 541 kts | 132° |
| 2026-04-30 19:40 | -29.73854 | 130.19325 | 36920 ft | 541 kts | 132° |
| 2026-04-30 19:41 | -29.78613 | 130.26057 | 36919 ft | 541 kts | 132° |
| 2026-04-30 19:41 | -29.83346 | 130.32764 | 36928 ft | 541 kts | 132° |
| 2026-04-30 19:42 | -29.88089 | 130.39495 | 36932 ft | 541 kts | 132° |
| 2026-04-30 19:42 | -29.92843 | 130.46255 | 36929 ft | 541 kts | 132° |
| 2026-04-30 19:43 | -29.97553 | 130.52962 | 36930 ft | 540 kts | 131° |
| 2026-04-30 19:44 | -30.04630 | 130.63061 | 36931 ft | 540 kts | 131° |
| 2026-04-30 19:44 | -30.09348 | 130.69808 | 36931 ft | 540 kts | 131° |
| 2026-04-30 19:45 | -30.14074 | 130.76578 | 36931 ft | 540 kts | 131° |
| 2026-04-30 19:45 | -30.18769 | 130.83314 | 36932 ft | 540 kts | 131° |
| 2026-04-30 19:46 | -30.23490 | 130.90100 | 36930 ft | 540 kts | 131° |
| 2026-04-30 19:46 | -30.28203 | 130.96885 | 36931 ft | 540 kts | 131° |
| 2026-04-30 19:47 | -30.32912 | 131.03677 | 36931 ft | 540 kts | 131° |
| 2026-04-30 19:47 | -30.37604 | 131.10455 | 36933 ft | 540 kts | 131° |
| 2026-04-30 19:48 | -30.42284 | 131.17229 | 36934 ft | 540 kts | 131° |
| 2026-04-30 19:48 | -30.46985 | 131.24043 | 36935 ft | 540 kts | 131° |
| 2026-04-30 19:49 | -30.51678 | 131.30857 | 36932 ft | 540 kts | 131° |
| 2026-04-30 19:49 | -30.58679 | 131.41046 | 36935 ft | 540 kts | 130° |
| 2026-04-30 19:50 | -30.63363 | 131.47877 | 36931 ft | 539 kts | 130° |
| 2026-04-30 19:50 | -30.68013 | 131.54670 | 36937 ft | 539 kts | 130° |
| 2026-04-30 19:51 | -30.72690 | 131.61514 | 36938 ft | 539 kts | 130° |
| 2026-04-30 19:51 | -30.77363 | 131.68366 | 36936 ft | 539 kts | 130° |
| 2026-04-30 19:52 | -30.81999 | 131.75173 | 36934 ft | 539 kts | 130° |
| 2026-04-30 19:52 | -30.86664 | 131.82036 | 36940 ft | 539 kts | 130° |
| 2026-04-30 19:53 | -30.91288 | 131.88868 | 36942 ft | 539 kts | 130° |
| 2026-04-30 19:53 | -30.95933 | 131.95748 | 36942 ft | 539 kts | 130° |
| 2026-04-30 19:54 | -31.00574 | 132.02631 | 36939 ft | 539 kts | 130° |
| 2026-04-30 19:54 | -31.05189 | 132.09488 | 36943 ft | 539 kts | 130° |
| 2026-04-30 19:55 | -31.09827 | 132.16389 | 36945 ft | 539 kts | 130° |
| 2026-04-30 19:55 | -31.14414 | 132.23228 | 36947 ft | 539 kts | 130° |
| 2026-04-30 19:56 | -31.19041 | 132.30139 | 36949 ft | 538 kts | 130° |
| 2026-04-30 19:56 | -31.23631 | 132.37007 | 36950 ft | 538 kts | 130° |
| 2026-04-30 19:57 | -31.28242 | 132.43918 | 36953 ft | 538 kts | 130° |
| 2026-04-30 19:57 | -31.32842 | 132.50824 | 36955 ft | 538 kts | 129° |
| 2026-04-30 19:58 | -31.37413 | 132.57699 | 36957 ft | 537 kts | 129° |
| 2026-04-30 19:58 | -31.42009 | 132.64624 | 36954 ft | 537 kts | 129° |
| 2026-04-30 19:59 | -31.46574 | 132.71515 | 36952 ft | 537 kts | 129° |
| 2026-04-30 20:00 | -31.53451 | 132.81920 | 36965 ft | 536 kts | 129° |
| 2026-04-30 20:00 | -31.57995 | 132.88809 | 36961 ft | 536 kts | 129° |
| 2026-04-30 20:01 | -31.64069 | 132.98040 | 36961 ft | 536 kts | 129° |
| 2026-04-30 20:01 | -31.69366 | 133.06106 | 36970 ft | 536 kts | 129° |
| 2026-04-30 20:02 | -31.75421 | 133.15347 | 36970 ft | 535 kts | 129° |
| 2026-04-30 20:03 | -31.82241 | 133.25783 | 36975 ft | 535 kts | 129° |
| 2026-04-30 20:03 | -31.86749 | 133.32697 | 36971 ft | 535 kts | 129° |
| 2026-04-30 20:04 | -31.91283 | 133.39664 | 36967 ft | 534 kts | 129° |
| 2026-04-30 20:05 | -31.98060 | 133.50100 | 36979 ft | 534 kts | 129° |
| 2026-04-30 20:05 | -32.04798 | 133.60505 | 36982 ft | 533 kts | 129° |
| 2026-04-30 20:06 | -32.09270 | 133.67427 | 36983 ft | 533 kts | 129° |
| 2026-04-30 20:06 | -32.13757 | 133.74390 | 36967 ft | 532 kts | 128° |
| 2026-04-30 20:07 | -32.18163 | 133.81380 | 36983 ft | 532 kts | 128° |
| 2026-04-30 20:08 | -32.24755 | 133.91949 | 36986 ft | 532 kts | 128° |
| 2026-04-30 20:08 | -32.29149 | 133.98985 | 36984 ft | 531 kts | 128° |
| 2026-04-30 20:09 | -32.33515 | 134.05982 | 36993 ft | 531 kts | 128° |
| 2026-04-30 20:09 | -32.40091 | 134.16539 | 36995 ft | 530 kts | 128° |
| 2026-04-30 20:10 | -32.46618 | 134.27049 | 36993 ft | 530 kts | 127° |
| 2026-04-30 20:11 | -32.53169 | 134.37628 | 36986 ft | 529 kts | 127° |
| 2026-04-30 20:11 | -32.57501 | 134.44640 | 37009 ft | 529 kts | 127° |
| 2026-04-30 20:12 | -32.64032 | 134.55236 | 36995 ft | 529 kts | 127° |
| 2026-04-30 20:13 | -32.68352 | 134.62262 | 37008 ft | 528 kts | 127° |
| 2026-04-30 20:13 | -32.72691 | 134.69331 | 37011 ft | 528 kts | 127° |
| 2026-04-30 20:14 | -32.77000 | 134.76365 | 37014 ft | 528 kts | 127° |
| 2026-04-30 20:14 | -32.81317 | 134.83425 | 37010 ft | 528 kts | 127° |
| 2026-04-30 20:15 | -32.85638 | 134.90506 | 37014 ft | 527 kts | 127° |
| 2026-04-30 20:15 | -32.89928 | 134.97548 | 37023 ft | 527 kts | 127° |
| 2026-04-30 20:16 | -32.94232 | 135.04628 | 37025 ft | 527 kts | 127° |
| 2026-04-30 20:16 | -32.98504 | 135.11668 | 37026 ft | 527 kts | 127° |
| 2026-04-30 20:17 | -33.02790 | 135.18762 | 37019 ft | 526 kts | 127° |
| 2026-04-30 20:17 | -33.07043 | 135.25888 | 37028 ft | 526 kts | 126° |
| 2026-04-30 20:18 | -33.11284 | 135.33012 | 37034 ft | 526 kts | 126° |
| 2026-04-30 20:18 | -33.15503 | 135.40102 | 37036 ft | 526 kts | 126° |
| 2026-04-30 20:19 | -33.19741 | 135.47228 | 37036 ft | 526 kts | 126° |
| 2026-04-30 20:19 | -33.23976 | 135.54363 | 37038 ft | 526 kts | 126° |
| 2026-04-30 20:20 | -33.28185 | 135.61468 | 37038 ft | 526 kts | 126° |
| 2026-04-30 20:20 | -33.32412 | 135.68617 | 37045 ft | 526 kts | 126° |
| 2026-04-30 20:21 | -33.36636 | 135.75777 | 37047 ft | 525 kts | 126° |
| 2026-04-30 20:21 | -33.40825 | 135.82891 | 37040 ft | 525 kts | 126° |
| 2026-04-30 20:22 | -33.45031 | 135.90052 | 37055 ft | 525 kts | 126° |
| 2026-04-30 20:22 | -33.49256 | 135.97210 | 37042 ft | 525 kts | 126° |
| 2026-04-30 20:23 | -33.53461 | 136.04324 | 37060 ft | 525 kts | 126° |
| 2026-04-30 20:23 | -33.57681 | 136.11485 | 37061 ft | 525 kts | 126° |
| 2026-04-30 20:24 | -33.61866 | 136.18609 | 37057 ft | 524 kts | 126° |
| 2026-04-30 20:24 | -33.66079 | 136.25797 | 37065 ft | 524 kts | 126° |
| 2026-04-30 20:25 | -33.72341 | 136.36509 | 37064 ft | 524 kts | 126° |
| 2026-04-30 20:26 | -33.78596 | 136.47239 | 37067 ft | 524 kts | 126° |
| 2026-04-30 20:26 | -33.84866 | 136.58024 | 37064 ft | 523 kts | 126° |
| 2026-04-30 20:27 | -33.93179 | 136.72376 | 37064 ft | 523 kts | 126° |
| 2026-04-30 20:28 | -34.01466 | 136.86739 | 37067 ft | 522 kts | 125° |
| 2026-04-30 20:30 | -34.11812 | 137.04755 | 37061 ft | 522 kts | 125° |
| 2026-04-30 20:31 | -34.24156 | 137.26362 | 37069 ft | 520 kts | 125° |
| 2026-04-30 20:32 | -34.34367 | 137.44338 | 37082 ft | 520 kts | 125° |
| 2026-04-30 20:33 | -34.40514 | 137.55203 | 37082 ft | 520 kts | 124° |
| 2026-04-30 20:34 | -34.46627 | 137.66039 | 37092 ft | 520 kts | 124° |
| 2026-04-30 20:35 | -34.52721 | 137.76875 | 37092 ft | 520 kts | 124° |
| 2026-04-30 20:35 | -34.58828 | 137.87770 | 37096 ft | 520 kts | 124° |
| 2026-04-30 20:36 | -34.62889 | 137.95033 | 37081 ft | 520 kts | 124° |
| 2026-04-30 20:37 | -34.68989 | 138.05967 | 37100 ft | 520 kts | 124° |
| 2026-04-30 20:37 | -34.73033 | 138.13234 | 37093 ft | 521 kts | 124° |
| 2026-04-30 20:38 | -34.77088 | 138.20537 | 37088 ft | 521 kts | 124° |
| 2026-04-30 20:38 | -34.81139 | 138.27850 | 37108 ft | 521 kts | 124° |
| 2026-04-30 20:39 | -34.87189 | 138.38796 | 37109 ft | 521 kts | 124° |
| 2026-04-30 20:40 | -34.93247 | 138.49814 | 37097 ft | 520 kts | 123° |
| 2026-04-30 20:40 | -34.94964 | 138.53703 | 37109 ft | 520 kts | 112° |
| 2026-04-30 20:40 | -34.96330 | 138.57717 | 37107 ft | 519 kts | 110° |
| 2026-04-30 20:41 | -35.00128 | 138.70070 | 37106 ft | 518 kts | 109° |
| 2026-04-30 20:41 | -35.02598 | 138.78321 | 37109 ft | 517 kts | 109° |
| 2026-04-30 20:42 | -35.05084 | 138.86579 | 37123 ft | 517 kts | 109° |
| 2026-04-30 20:43 | -35.08796 | 138.98884 | 37137 ft | 516 kts | 109° |
| 2026-04-30 20:43 | -35.11275 | 139.07126 | 37137 ft | 516 kts | 109° |
| 2026-04-30 20:44 | -35.14961 | 139.19433 | 37139 ft | 515 kts | 109° |
| 2026-04-30 20:45 | -35.19856 | 139.35855 | 37145 ft | 514 kts | 109° |
| 2026-04-30 20:45 | -35.22301 | 139.44096 | 37151 ft | 514 kts | 109° |
| 2026-04-30 20:46 | -35.27567 | 139.60340 | 37162 ft | 514 kts | 115° |
| 2026-04-30 20:47 | -35.32176 | 139.72160 | 37160 ft | 514 kts | 115° |
| 2026-04-30 20:48 | -35.36660 | 139.84114 | 37162 ft | 513 kts | 114° |
| 2026-04-30 20:48 | -35.39581 | 139.92041 | 37165 ft | 513 kts | 114° |
| 2026-04-30 20:49 | -35.42507 | 140.00004 | 37171 ft | 513 kts | 114° |
| 2026-04-30 20:50 | -35.46899 | 140.11974 | 37172 ft | 513 kts | 114° |
| 2026-04-30 20:50 | -35.49328 | 140.18609 | 37176 ft | 513 kts | 114° |
| 2026-04-30 20:51 | -35.52722 | 140.27908 | 37183 ft | 512 kts | 114° |
| 2026-04-30 20:51 | -35.56607 | 140.38583 | 37181 ft | 512 kts | 114° |
| 2026-04-30 20:52 | -35.59975 | 140.47869 | 37188 ft | 512 kts | 114° |
| 2026-04-30 20:53 | -35.63841 | 140.58560 | 37194 ft | 512 kts | 114° |
| 2026-04-30 20:53 | -35.66726 | 140.66562 | 37195 ft | 512 kts | 114° |
| 2026-04-30 20:54 | -35.71033 | 140.78549 | 37199 ft | 511 kts | 114° |
| 2026-04-30 20:55 | -35.75333 | 140.90560 | 37204 ft | 511 kts | 114° |
| 2026-04-30 20:55 | -35.78178 | 140.98534 | 37209 ft | 511 kts | 114° |
| 2026-04-30 20:56 | -35.81053 | 141.06604 | 36899 ft | 518 kts | 114° |
| 2026-04-30 20:56 | -35.82520 | 141.10702 | 36421 ft | 527 kts | 114° |
| 2026-04-30 20:56 | -35.85539 | 141.19065 | 35952 ft | 533 kts | 114° |
| 2026-04-30 20:57 | -35.87053 | 141.23205 | 36161 ft | 526 kts | 115° |
| 2026-04-30 20:57 | -35.88562 | 141.27277 | 36501 ft | 517 kts | 115° |
| 2026-04-30 20:57 | -35.90056 | 141.31237 | 36754 ft | 511 kts | 115° |
| 2026-04-30 20:58 | -35.94727 | 141.43138 | 36488 ft | 517 kts | 117° |
| 2026-04-30 20:58 | -35.96347 | 141.47108 | 36313 ft | 520 kts | 117° |
| 2026-04-30 20:58 | -35.97985 | 141.51049 | 36237 ft | 521 kts | 118° |
| 2026-04-30 20:59 | -36.01364 | 141.58934 | 36374 ft | 516 kts | 119° |
| 2026-04-30 20:59 | -36.03082 | 141.62813 | 36487 ft | 513 kts | 120° |
| 2026-04-30 21:00 | -36.10233 | 141.78052 | 36290 ft | 515 kts | 122° |
| 2026-04-30 21:01 | -36.15946 | 141.89246 | 36478 ft | 508 kts | 124° |
| 2026-04-30 21:02 | -36.21903 | 142.00058 | 36338 ft | 511 kts | 126° |
| 2026-04-30 21:02 | -36.23986 | 142.03649 | 36211 ft | 513 kts | 127° |
| 2026-04-30 21:02 | -36.26104 | 142.07214 | 36147 ft | 513 kts | 128° |
| 2026-04-30 21:03 | -36.30399 | 142.14203 | 36247 ft | 509 kts | 129° |
| 2026-04-30 21:03 | -36.34817 | 142.21056 | 36287 ft | 508 kts | 130° |
| 2026-04-30 21:04 | -36.39379 | 142.27782 | 36140 ft | 510 kts | 132° |
| 2026-04-30 21:04 | 2.74857 | 101.71576 | 81 ft | 0 kts | 325° |
| 2026-04-30 21:05 | 2.74850 | 101.71580 | 85 ft | 0 kts | 326° |
| 2026-04-30 21:05 | -35.29680 | 139.65782 | 37204 ft | 467 kts | 114° |
| 2026-04-30 21:06 | -35.31555 | 139.71954 | 37261 ft | 470 kts | 99° |
| 2026-04-30 21:06 | -35.32406 | 139.75865 | 37176 ft | 482 kts | 111° |
| 2026-04-30 21:06 | -35.34402 | 139.80828 | 37158 ft | 496 kts | 120° |
| 2026-04-30 21:07 | -35.37290 | 139.87034 | 37161 ft | 512 kts | 119° |
| 2026-04-30 21:07 | -35.40616 | 139.94923 | 37163 ft | 529 kts | 115° |
| 2026-04-30 21:08 | -35.43758 | 140.03246 | 37170 ft | 542 kts | 114° |
| 2026-04-30 21:08 | -35.46836 | 140.11714 | 37175 ft | 548 kts | 114° |
| 2026-04-30 21:09 | -35.49925 | 140.20229 | 37182 ft | 549 kts | 114° |
| 2026-04-30 21:09 | -35.53045 | 140.28798 | 37186 ft | 549 kts | 114° |
| 2026-04-30 21:10 | -35.56161 | 140.37358 | 37183 ft | 542 kts | 114° |
| 2026-04-30 21:10 | -35.57680 | 140.41537 | 37194 ft | 526 kts | 114° |
| 2026-04-30 21:10 | -35.59150 | 140.45587 | 37198 ft | 514 kts | 114° |
| 2026-04-30 21:11 | -35.62025 | 140.53529 | 37193 ft | 511 kts | 114° |
| 2026-04-30 21:11 | -35.64911 | 140.61524 | 37197 ft | 511 kts | 114° |
| 2026-04-30 21:12 | -35.67795 | 140.69534 | 37200 ft | 511 kts | 114° |
| 2026-04-30 21:12 | -35.70671 | 140.77540 | 37202 ft | 511 kts | 114° |
| 2026-04-30 21:13 | -35.73525 | 140.85505 | 37205 ft | 511 kts | 114° |
| 2026-04-30 21:13 | -35.76393 | 140.93529 | 37213 ft | 511 kts | 114° |
| 2026-04-30 21:14 | -35.79232 | 141.01492 | 37215 ft | 510 kts | 114° |
| 2026-04-30 21:14 | -35.82086 | 141.09517 | 37216 ft | 510 kts | 114° |
| 2026-04-30 21:15 | -35.84936 | 141.17553 | 37218 ft | 510 kts | 114° |
| 2026-04-30 21:15 | -35.87756 | 141.25527 | 37222 ft | 510 kts | 114° |
| 2026-04-30 21:16 | -35.90591 | 141.33562 | 37220 ft | 510 kts | 113° |
| 2026-04-30 21:16 | -35.93407 | 141.41565 | 37229 ft | 509 kts | 113° |
| 2026-04-30 21:17 | -35.96226 | 141.49595 | 37227 ft | 509 kts | 113° |
| 2026-04-30 21:17 | -35.99026 | 141.57593 | 37228 ft | 508 kts | 113° |
| 2026-04-30 21:18 | -36.01834 | 141.65635 | 37235 ft | 508 kts | 113° |
| 2026-04-30 21:18 | -36.04611 | 141.73610 | 37235 ft | 508 kts | 113° |
| 2026-04-30 21:19 | -36.07401 | 141.81641 | 37237 ft | 507 kts | 113° |
| 2026-04-30 21:19 | -36.10184 | 141.89673 | 37240 ft | 507 kts | 113° |
| 2026-04-30 21:20 | -36.12940 | 141.97651 | 37240 ft | 507 kts | 113° |
| 2026-04-30 21:20 | -36.15707 | 142.05681 | 37244 ft | 506 kts | 113° |
| 2026-04-30 21:21 | -36.18471 | 142.13724 | 37244 ft | 506 kts | 113° |
| 2026-04-30 21:22 | -36.22588 | 142.25740 | 37250 ft | 506 kts | 113° |
| 2026-04-30 21:23 | -36.28054 | 142.41769 | 37252 ft | 505 kts | 112° |
| 2026-04-30 21:23 | -36.32135 | 142.53794 | 37260 ft | 505 kts | 112° |
| 2026-04-30 21:24 | -36.34852 | 142.61825 | 37260 ft | 504 kts | 112° |
| 2026-04-30 21:24 | -36.37550 | 142.69823 | 37261 ft | 504 kts | 112° |
| 2026-04-30 21:25 | -36.41604 | 142.81879 | 37266 ft | 504 kts | 112° |
| 2026-04-30 21:26 | -36.45637 | 142.93919 | 37270 ft | 504 kts | 112° |
| 2026-04-30 21:27 | -36.49627 | 143.05907 | 36099 ft | 500 kts | 112° |
| 2026-04-30 21:27 | -36.50976 | 143.09970 | 35319 ft | 503 kts | 112° |
| 2026-04-30 21:27 | -36.52296 | 143.13951 | 34517 ft | 506 kts | 112° |
| 2026-04-30 21:28 | -36.54985 | 143.22078 | 33009 ft | 504 kts | 112° |
| 2026-04-30 21:28 | -36.56308 | 143.26085 | 32450 ft | 499 kts | 112° |
| 2026-04-30 21:28 | -36.58908 | 143.33975 | 31335 ft | 490 kts | 112° |
| 2026-04-30 21:29 | -36.60209 | 143.37930 | 30772 ft | 487 kts | 112° |
| 2026-04-30 21:29 | -36.63994 | 143.49458 | 29038 ft | 473 kts | 112° |
| 2026-04-30 21:30 | -36.66457 | 143.56976 | 27940 ft | 464 kts | 112° |
| 2026-04-30 21:31 | -36.70047 | 143.67982 | 26273 ft | 452 kts | 111° |
| 2026-04-30 21:31 | -36.72398 | 143.75214 | 25131 ft | 446 kts | 111° |
| 2026-04-30 21:32 | -36.74696 | 143.82300 | 24012 ft | 441 kts | 111° |
| 2026-04-30 21:32 | -36.75843 | 143.85843 | 23364 ft | 439 kts | 110° |
| 2026-04-30 21:32 | -36.76982 | 143.89364 | 22771 ft | 434 kts | 110° |
| 2026-04-30 21:32 | -36.78104 | 143.92842 | 22187 ft | 429 kts | 110° |
| 2026-04-30 21:33 | -36.79217 | 143.96294 | 21612 ft | 425 kts | 110° |
| 2026-04-30 21:33 | -36.81387 | 144.03036 | 20459 ft | 418 kts | 110° |
| 2026-04-30 21:33 | -36.82467 | 144.06398 | 19888 ft | 414 kts | 110° |
| 2026-04-30 21:34 | -36.83540 | 144.09739 | 19310 ft | 411 kts | 110° |
| 2026-04-30 21:34 | -36.85639 | 144.16291 | 18123 ft | 406 kts | 110° |
| 2026-04-30 21:34 | -36.86684 | 144.19560 | 17528 ft | 401 kts | 110° |
| 2026-04-30 21:35 | -36.87712 | 144.22779 | 16972 ft | 397 kts | 110° |
| 2026-04-30 21:35 | -36.88733 | 144.25981 | 16397 ft | 393 kts | 110° |
| 2026-04-30 21:35 | -36.89729 | 144.29104 | 15842 ft | 389 kts | 110° |
| 2026-04-30 21:35 | -36.90727 | 144.32236 | 15277 ft | 386 kts | 110° |
| 2026-04-30 21:36 | -36.91719 | 144.35353 | 14726 ft | 383 kts | 110° |
| 2026-04-30 21:36 | -36.92892 | 144.38329 | 14177 ft | 381 kts | 121° |
| 2026-04-30 21:37 | -36.97781 | 144.46016 | 12488 ft | 370 kts | 130° |
| 2026-04-30 21:37 | -36.99467 | 144.48373 | 11935 ft | 366 kts | 130° |
| 2026-04-30 21:37 | -37.01162 | 144.50730 | 11525 ft | 359 kts | 130° |
| 2026-04-30 21:37 | -37.02799 | 144.53005 | 11380 ft | 344 kts | 130° |
| 2026-04-30 21:38 | -37.04374 | 144.55180 | 11246 ft | 329 kts | 130° |
| 2026-04-30 21:38 | -37.05887 | 144.57263 | 11118 ft | 316 kts | 130° |
| 2026-04-30 21:38 | -37.07356 | 144.59276 | 10968 ft | 312 kts | 130° |
| 2026-04-30 21:38 | -37.08821 | 144.61279 | 10633 ft | 311 kts | 130° |
| 2026-04-30 21:39 | -37.10296 | 144.63286 | 10090 ft | 315 kts | 130° |
| 2026-04-30 21:39 | -37.11922 | 144.65107 | 9426 ft | 322 kts | 146° |
| 2026-04-30 21:39 | -37.14003 | 144.66112 | 8940 ft | 322 kts | 171° |
| 2026-04-30 21:39 | -37.16220 | 144.66108 | 8545 ft | 315 kts | 189° |
| 2026-04-30 21:40 | -37.18374 | 144.65671 | 8166 ft | 311 kts | 192° |
| 2026-04-30 21:40 | -37.20483 | 144.65193 | 7853 ft | 305 kts | 192° |
| 2026-04-30 21:40 | -37.22564 | 144.64726 | 7592 ft | 302 kts | 192° |
| 2026-04-30 21:40 | -37.24660 | 144.64498 | 7326 ft | 303 kts | 183° |
| 2026-04-30 21:41 | -37.26742 | 144.64472 | 7061 ft | 303 kts | 181° |
| 2026-04-30 21:41 | -37.28861 | 144.64480 | 6801 ft | 304 kts | 181° |
| 2026-04-30 21:41 | -37.30980 | 144.64500 | 6520 ft | 303 kts | 181° |
| 2026-04-30 21:41 | -37.33090 | 144.64512 | 6253 ft | 303 kts | 181° |
| 2026-04-30 21:42 | -37.35170 | 144.64526 | 5973 ft | 302 kts | 181° |
| 2026-04-30 21:42 | -37.37267 | 144.64532 | 5708 ft | 301 kts | 181° |
| 2026-04-30 21:42 | -37.39364 | 144.64537 | 5455 ft | 301 kts | 182° |
| 2026-04-30 21:42 | -37.41460 | 144.64545 | 5212 ft | 300 kts | 181° |
| 2026-04-30 21:43 | -37.43548 | 144.64539 | 4954 ft | 299 kts | 182° |
| 2026-04-30 21:43 | -37.45636 | 144.64541 | 4711 ft | 299 kts | 181° |
| 2026-04-30 21:43 | -37.47714 | 144.64540 | 4513 ft | 298 kts | 181° |
| 2026-04-30 21:43 | -37.49798 | 144.64530 | 4449 ft | 299 kts | 181° |
| 2026-04-30 21:44 | -37.51861 | 144.64523 | 4400 ft | 299 kts | 182° |
| 2026-04-30 21:44 | -37.53950 | 144.64520 | 4340 ft | 299 kts | 181° |
| 2026-04-30 21:44 | -37.56024 | 144.64548 | 4289 ft | 298 kts | 178° |
| 2026-04-30 21:44 | -37.58093 | 144.64835 | 4236 ft | 299 kts | 172° |
| 2026-04-30 21:45 | -37.60139 | 144.65225 | 4189 ft | 300 kts | 172° |
| 2026-04-30 21:45 | -37.62195 | 144.65621 | 4142 ft | 299 kts | 172° |
| 2026-04-30 21:45 | -37.64265 | 144.66021 | 4086 ft | 299 kts | 172° |
| 2026-04-30 21:45 | -37.66321 | 144.66396 | 4035 ft | 298 kts | 175° |
| 2026-04-30 21:46 | -37.68367 | 144.66517 | 3983 ft | 297 kts | 181° |
| 2026-04-30 21:46 | -37.70427 | 144.66526 | 3936 ft | 295 kts | 181° |
| 2026-04-30 21:46 | -37.72478 | 144.66523 | 3888 ft | 295 kts | 181° |
| 2026-04-30 21:46 | -37.74525 | 144.66522 | 3833 ft | 288 kts | 182° |
| 2026-04-30 21:47 | -37.76479 | 144.66527 | 3797 ft | 274 kts | 181° |
| 2026-04-30 21:47 | -37.78351 | 144.66530 | 3766 ft | 272 kts | 181° |
| 2026-04-30 21:47 | -37.80241 | 144.66534 | 3711 ft | 271 kts | 182° |
| 2026-04-30 21:47 | -37.82131 | 144.66539 | 3656 ft | 271 kts | 181° |
| 2026-04-30 21:48 | -37.84017 | 144.66539 | 3607 ft | 266 kts | 182° |
| 2026-04-30 21:48 | -37.85816 | 144.66538 | 3559 ft | 252 kts | 182° |
| 2026-04-30 21:48 | -37.87530 | 144.66538 | 3512 ft | 242 kts | 181° |
| 2026-04-30 21:48 | -37.89184 | 144.66545 | 3464 ft | 239 kts | 182° |
| 2026-04-30 21:49 | -37.90829 | 144.66556 | 3407 ft | 230 kts | 181° |
| 2026-04-30 21:49 | -37.92393 | 144.66570 | 3343 ft | 219 kts | 182° |
| 2026-04-30 21:49 | -37.93895 | 144.66728 | 3180 ft | 219 kts | 165° |
| 2026-04-30 21:49 | -37.95169 | 144.67713 | 3020 ft | 214 kts | 127° |
| 2026-04-30 21:50 | -37.95791 | 144.69336 | 2846 ft | 199 kts | 91° |
| 2026-04-30 21:50 | -37.95782 | 144.71034 | 2689 ft | 190 kts | 75° |
| 2026-04-30 21:50 | -37.95600 | 144.72667 | 2510 ft | 188 kts | 72° |
| 2026-04-30 21:50 | -37.95270 | 144.74231 | 2488 ft | 179 kts | 56° |
| 2026-04-30 21:51 | -37.94711 | 144.75620 | 2481 ft | 175 kts | 52° |
| 2026-04-30 21:51 | -37.94121 | 144.76965 | 2480 ft | 175 kts | 52° |
| 2026-04-30 21:51 | -37.93470 | 144.78260 | 2492 ft | 172 kts | 41° |
| 2026-04-30 21:51 | -37.92633 | 144.79224 | 2486 ft | 149 kts | 31° |
| 2026-04-30 21:52 | -37.91865 | 144.79998 | 2497 ft | 136 kts | 30° |
| 2026-04-30 21:52 | -37.91130 | 144.80728 | 2495 ft | 135 kts | 30° |
| 2026-04-30 21:52 | -37.90439 | 144.81564 | 2498 ft | 139 kts | 40° |
| 2026-04-30 21:52 | -37.89820 | 144.82504 | 2495 ft | 138 kts | 41° |
| 2026-04-30 21:53 | -37.89249 | 144.83425 | 2495 ft | 129 kts | 42° |
| 2026-04-30 21:53 | -37.88703 | 144.84321 | 2500 ft | 128 kts | 41° |
| 2026-04-30 21:53 | -37.88177 | 144.85204 | 2497 ft | 127 kts | 42° |
| 2026-04-30 21:53 | -37.87642 | 144.86094 | 2495 ft | 126 kts | 41° |
| 2026-04-30 21:54 | -37.86953 | 144.86667 | 2493 ft | 116 kts | 12° |
| 2026-04-30 21:54 | -37.86173 | 144.86897 | 2498 ft | 114 kts | 7° |
| 2026-04-30 21:54 | -37.85401 | 144.87006 | 2496 ft | 112 kts | 2° |
| 2026-04-30 21:54 | -37.84622 | 144.87088 | 2494 ft | 112 kts | 2° |
| 2026-04-30 21:55 | -37.83844 | 144.87162 | 2478 ft | 112 kts | 1° |
| 2026-04-30 21:55 | -37.83071 | 144.87043 | 2419 ft | 114 kts | 346° |
| 2026-04-30 21:55 | -37.82309 | 144.86753 | 2383 ft | 114 kts | 345° |
| 2026-04-30 21:55 | -37.81560 | 144.86475 | 2381 ft | 113 kts | 350° |
| 2026-04-30 21:56 | -37.80789 | 144.86322 | 2369 ft | 111 kts | 355° |
| 2026-04-30 21:56 | -37.80019 | 144.86216 | 2280 ft | 111 kts | 355° |
| 2026-04-30 21:56 | -37.79263 | 144.86038 | 2195 ft | 110 kts | 352° |
| 2026-04-30 21:56 | -37.78505 | 144.85901 | 2053 ft | 111 kts | 356° |
| 2026-04-30 21:57 | -37.77739 | 144.85785 | 1813 ft | 109 kts | 353° |
| 2026-04-30 21:57 | -37.77252 | 144.85669 | 1648 ft | 106 kts | 352° |
| 2026-04-30 21:57 | -37.76527 | 144.85508 | 1540 ft | 108 kts | 354° |
| 2026-04-30 21:57 | -37.75769 | 144.85405 | 1467 ft | 112 kts | 356° |
| 2026-04-30 21:58 | -37.74975 | 144.85298 | 1329 ft | 114 kts | 354° |
| 2026-04-30 21:58 | -37.74189 | 144.85147 | 1273 ft | 115 kts | 352° |
| 2026-04-30 21:58 | -37.73404 | 144.85006 | 1218 ft | 116 kts | 354° |
| 2026-04-30 21:58 | -37.72580 | 144.84834 | 1047 ft | 121 kts | 350° |
| 2026-04-30 21:59 | -37.71740 | 144.84673 | 913 ft | 122 kts | 355° |
| 2026-04-30 21:59 | -37.70903 | 144.84532 | 785 ft | 121 kts | 353° |
| 2026-04-30 21:59 | -37.70067 | 144.84360 | 669 ft | 124 kts | 354° |
| 2026-04-30 22:00 | -37.68362 | 144.84049 | 401 ft | 124 kts | 354° |
| 2026-04-30 22:00 | -37.67025 | 144.83811 | 391 ft | 39 kts | 350° |
| 2026-04-30 22:00 | -37.66798 | 144.83766 | 397 ft | 28 kts | 352° |
| 2026-04-30 22:01 | -37.66633 | 144.83736 | 405 ft | 18 kts | 355° |
| 2026-04-30 22:01 | -37.66529 | 144.83797 | 409 ft | 17 kts | 56° |
| 2026-04-30 22:01 | -37.66512 | 144.83909 | 410 ft | 7 kts | 92° |
| 2026-04-30 22:01 | -37.66515 | 144.83992 | 410 ft | 12 kts | 93° |
| 2026-04-30 22:02 | -37.66524 | 144.84116 | 410 ft | 16 kts | 95° |
| 2026-04-30 22:02 | -37.66530 | 144.84278 | 409 ft | 20 kts | 86° |
| 2026-04-30 22:02 | -37.66510 | 144.84455 | 411 ft | 19 kts | 82° |
| 2026-04-30 22:02 | -37.66492 | 144.84616 | 413 ft | 16 kts | 82° |
| 2026-04-30 22:03 | -37.66479 | 144.84731 | 408 ft | 7 kts | 90° |
| 2026-04-30 22:03 | -37.66510 | 144.84778 | 413 ft | 10 kts | 147° |
| 2026-04-30 22:03 | -37.66583 | 144.84800 | 411 ft | 6 kts | 184° |
| 2026-04-30 22:03 | -37.66616 | 144.84795 | 409 ft | 0 kts | 187° |
| 2026-04-30 22:04 | -37.66623 | 144.84792 | 409 ft | 4 kts | 196° |
| 2026-04-30 22:04 | -37.66635 | 144.84786 | 409 ft | 0 kts | 203° |
| 2026-04-30 22:04 | -37.66682 | 144.84749 | 407 ft | 9 kts | 214° |
| 2026-04-30 22:05 | -37.66693 | 144.84740 | 406 ft | 2 kts | 215° |
| 2026-04-30 22:05 | -37.66697 | 144.84737 | 406 ft | 0 kts | 215° |
| 2026-04-30 22:07 | -37.66697 | 144.84736 | 406 ft | 0 kts | 218° |
| 2026-04-30 22:07 | -37.66698 | 144.84733 | 406 ft | 1 kts | 229° |
| 2026-04-30 22:07 | -37.66692 | 144.84719 | 406 ft | 1 kts | 306° |
| 2026-04-30 22:07 | -37.66669 | 144.84700 | 407 ft | 7 kts | 323° |
| 2026-04-30 22:08 | -37.66651 | 144.84648 | 407 ft | 0 kts | 258° |
| 2026-04-30 22:08 | -37.66669 | 144.84632 | 404 ft | 7 kts | 202° |
| 2026-04-30 22:08 | -37.66704 | 144.84636 | 405 ft | 7 kts | 172° |
| 2026-04-30 22:08 | -37.66729 | 144.84641 | 402 ft | 0 kts | 171° |